Gaziantep, Turkey

Saat: 05:35 AM EEST Tarih: 26 Temmuz 2016 (GMT +0300)
City Center | | Change Station

Elev 2779 ft 37.07 °N, 37.37 °E | Updated 5 minutes ago

Clear
Açık
78.4
Feels Like 79
N
3.1
Rüzgar Değişken Rüzgar from GB
Gusts 10.7 mil

Bugün
High -- | Low -- F°
--% Chance of Precip.
Dün
High -- | Low -- F°
Precip. -- inç
Basınç 29.77 inç
Görüş Uzaklığı -9999.0 mil
Bulutlar
Sıcaklık endeksi 79
Çiğ noktası 55
Nem oranı 45%
Yağış 0.00 inç
Kar Kalınlığı Not available.
5:30 AM 7:42 PM
Şişkin Ay, 60% visible
METAR LTAJ 260220Z 35004KT CAVOK 26/08 Q1008 NOSIG RMK RWY10 22003KT
Basınç 29.77 inç
Görüş Uzaklığı -9999.0 mil
Bulutlar
Sıcaklık endeksi 79
Çiğ noktası 55
Nem oranı 45%
Yağış 0.00 inç
Kar Kalınlığı Not available.
5:30 AM 7:42 PM
Şişkin Ay, 60% visible
METAR LTAJ 260220Z 35004KT CAVOK 26/08 Q1008 NOSIG RMK RWY10 22003KT

10-Day Weather Forecast

×

Almanac

Gökbilim

Jul. 26, 2016 Rise Set
Gerçek Zaman
Günlük Tan
Deniz Tanı
Geceyarısı Yıldız Zamanı
Ay
Görünür Işığın Uzunluğu
Günün Uzunluğu
Tomorrow will be .
, % of the Moon is Illuminated

Günün En Yüksekleri

Country Highs Country Lows

Community

WunderPhotos

Upload Photos

1,927,505 photos uploaded!

WunderBlog® & News

Nearby

Hava Kalitesi

  Hava Kalitesi Hava Kalitesi Endeksi Kirletici
Not available.

Kar Kalınlığı

Station Depth Yükseklik

Earthquake Activity

Şehir Distance Mag. Time & Date
Minimum magnitude displayed is 2.5.

Coastal Water Temperatures

Yer Sıcaklık

Stations

Nearby Weather Stations

Station Location Sıcaklık Rüzgar Etkisi Çiğ noktası Nem oranı Rüzgar Precip. Elev Güncellenme Zamanı Biçim